Monday, October 22, 2018, 12:01 AM EDT
Back to Local

KPBG, Plattsburgh International Airport

Location: Plattsburgh, NY, United States Lat: 44.65
Local Time: 12:01 AM EDT ( 4:01 GMT) Lon: -73.467
Time Zone: US/Eastern Elev: 239 ft

Show me the last for .
Show Decoded

2018-10-21 22:53 METAR KPBG 220253Z AUTO 25003KT 10SM OVC060 01/M08 A3007 RMK AO2 SLP187
                 T00061078 53010 =
2018-10-21 21:53 METAR KPBG 220153Z AUTO 25003KT 10SM BKN060 00/M07 A3006 RMK AO2 SLP183
                 T00001072 =
2018-10-21 20:53 METAR KPBG 220053Z AUTO 00000KT 10SM CLR 01/M08 A3005 RMK AO2 SLP178 T00111078 =
2018-10-21 19:53 METAR KPBG 212353Z AUTO 28003KT 10SM SCT060 02/M08 A3005 RMK AO2 SLP177
                 T00171078 10044 20017 51019 =
2018-10-21 18:53 METAR KPBG 212253Z AUTO VRB03KT 10SM BKN065 02/M07 A3003 RMK AO2 SLP173
                 T00221072 =
2018-10-21 17:53 METAR KPBG 212153Z AUTO 29005KT 10SM OVC065 03/M07 A3001 RMK AO2 SLP165
                 T00281067 =
2018-10-21 16:53 METAR KPBG 212053Z AUTO 31011G19KT 10SM OVC060 03/M06 A2999 RMK AO2 SLP158
                 T00331061 53011 =
2018-10-21 15:53 METAR KPBG 211953Z AUTO 28007G16KT 220V320 10SM FEW045 OVC055 03/M06 A2997 RMK
                 AO2 SLP152 T00331056 =
2018-10-21 14:53 METAR KPBG 211853Z AUTO 32016G22KT 10SM SCT047 BKN055 04/M07 A2996 RMK AO2
                 SLP148 T00441067 =
2018-10-21 13:53 METAR KPBG 211753Z AUTO 30013G19KT 10SM OVC049 03/M07 A2996 RMK AO2 SLP146 60000
                 T00331072 10033 20022 51006 =
2018-10-21 12:53 METAR KPBG 211653Z AUTO 30009G18KT 270V330 10SM OVC050 03/M07 A2995 RMK AO2
                 SNB26E36 SLP145 P0000 T00331067 =
2018-10-21 11:53 METAR KPBG 211553Z AUTO 32009G22KT 10SM OVC043 03/M07 A2995 RMK AO2 SLP145
                 T00281067 =
2018-10-21 10:53 METAR KPBG 211453Z AUTO 31011G19KT 10SM OVC042 03/M06 A2994 RMK AO2 SLP141
                 T00281061 51024 =
2018-10-21 09:53 METAR KPBG 211353Z AUTO 32016G23KT 10SM OVC041 03/M06 A2992 RMK AO2 SLP133
                 T00281061 =
2018-10-21 08:53 METAR KPBG 211253Z AUTO 30010G16KT 10SM OVC040 03/M06 A2990 RMK AO2 SLP126
                 T00281061 =
2018-10-21 07:53 METAR KPBG 211153Z AUTO 32010G17KT 10SM OVC037 03/M05 A2987 RMK AO2 SLP117 60000
                 T00281050 10050 20022 53035 =
2018-10-21 06:53 METAR KPBG 211053Z AUTO 32009G20KT 10SM SCT034 OVC043 02/M04 A2983 RMK AO2
                 UPB37E46 SLP103 P0000 T00221039 =
2018-10-21 05:53 METAR KPBG 210953Z AUTO 33010KT 10SM SCT040 03/M04 A2980 RMK AO2 SLP092
                 T00281039 =
2018-10-21 04:53 METAR KPBG 210853Z AUTO 30007G16KT 260V320 10SM CLR 03/M04 A2977 RMK AO2 SLP081
                 T00281039 51023 =
2018-10-21 03:53 METAR KPBG 210753Z AUTO 31009KT 10SM CLR 03/M03 A2974 RMK AO2 SLP071 T00281033 =
2018-10-21 02:53 METAR KPBG 210653Z AUTO 31009G17KT 10SM BKN039 04/M03 A2973 RMK AO2 SLP070
                 T00391028 =
2018-10-21 01:53 METAR KPBG 210553Z AUTO 34010KT 10SM FEW042 BKN075 04/M01 A2970 RMK AO2 SLP057
                 T00441011 10089 20044 51020 =
2018-10-21 00:53 METAR KPBG 210453Z AUTO 35008KT 10SM OVC070 06/M02 A2969 RMK AO2 SLP054
                 T00611017 401560061 =

Support USWX by starting your Amazon purchase here.